Time;durP1;ratioP1;P1;durP2;ratioP2;P2;SDS_P1;SDS_P2;PMS_P1;PMS_P2;Temp;Humidity;BMP_temperature;BMP_pressure;BME280_temperature;BME280_humidity;BME280_pressure;Samples;Min_cycle;Max_cycle;Signal;HPM_P1;HPM_P2
2021/01/19 00:00:53;;;;;;;4.10;3.00;;;5.70;62.40;;;;;;6245244;23;20411;-79
2021/01/19 00:03:19;;;;;;;3.73;3.30;;;5.80;62.50;;;;;;6245657;23;20412;-78
2021/01/19 00:05:46;;;;;;;3.93;3.07;;;5.80;62.40;;;;;;6244962;23;20452;-78
2021/01/19 00:08:13;;;;;;;3.80;3.10;;;5.80;62.10;;;;;;6245292;23;20403;-79
2021/01/19 00:10:40;;;;;;;2.97;2.67;;;5.80;62.10;;;;;;6245087;23;20903;-76
2021/01/19 00:13:07;;;;;;;3.60;2.90;;;5.80;61.90;;;;;;6244934;23;20914;-77
2021/01/19 00:15:33;;;;;;;3.00;2.70;;;5.80;61.50;;;;;;6245092;23;20972;-78
2021/01/19 00:18:00;;;;;;;2.90;2.70;;;5.80;61.60;;;;;;6243347;23;20751;-77
2021/01/19 00:20:26;;;;;;;4.73;3.50;;;5.80;61.90;;;;;;6245530;23;20415;-77
2021/01/19 00:22:53;;;;;;;4.73;3.07;;;5.80;62.00;;;;;;6245415;23;20419;-78
2021/01/19 00:25:19;;;;;;;3.73;2.87;;;5.80;62.10;;;;;;6244680;23;20450;-77
2021/01/19 00:27:47;;;;;;;3.60;3.30;;;5.80;61.90;;;;;;6245248;23;20788;-77
2021/01/19 00:30:15;;;;;;;3.00;2.80;;;5.90;62.00;;;;;;6244617;23;20421;-77
2021/01/19 00:32:42;;;;;;;4.50;2.77;;;5.90;61.90;;;;;;6254538;22;20504;-77
2021/01/19 00:35:09;;;;;;;2.97;2.77;;;5.90;62.00;;;;;;6276273;22;20498;-77
2021/01/19 00:37:36;;;;;;;2.80;2.60;;;5.90;61.60;;;;;;6275579;22;20411;-77
2021/01/19 00:40:03;;;;;;;3.43;2.80;;;5.90;61.70;;;;;;6275654;22;20418;-77
2021/01/19 00:42:30;;;;;;;3.63;3.33;;;5.80;61.70;;;;;;6275397;22;20909;-77
2021/01/19 00:44:57;;;;;;;3.00;2.80;;;5.80;61.70;;;;;;6274029;22;20461;-77
2021/01/19 00:47:24;;;;;;;2.43;2.13;;;5.70;61.50;;;;;;6275552;22;20403;-77
2021/01/19 00:49:50;;;;;;;5.70;2.90;;;5.70;61.70;;;;;;6275865;22;20410;-78
2021/01/19 00:52:17;;;;;;;3.37;2.63;;;5.70;61.80;;;;;;6275865;22;20445;-78
2021/01/19 00:54:43;;;;;;;6.17;3.13;;;5.70;61.80;;;;;;6275430;22;20966;-78
2021/01/19 00:57:10;;;;;;;3.13;2.93;;;5.70;61.80;;;;;;6275471;22;20441;-77
2021/01/19 00:59:37;;;;;;;3.30;3.00;;;5.60;61.70;;;;;;6275794;22;20769;-77
2021/01/19 01:02:04;;;;;;;3.00;2.63;;;5.60;61.70;;;;;;6275670;22;20457;-77
2021/01/19 01:04:30;;;;;;;2.70;2.50;;;5.60;61.70;;;;;;6275774;22;20445;-77
2021/01/19 01:06:57;;;;;;;3.70;3.03;;;5.50;61.80;;;;;;6275501;22;20438;-77
2021/01/19 01:09:23;;;;;;;2.67;2.40;;;5.50;61.80;;;;;;6275613;22;20411;-77
2021/01/19 01:11:51;;;;;;;4.17;2.80;;;5.50;62.00;;;;;;6273965;22;20464;-77
2021/01/19 01:14:18;;;;;;;2.63;2.43;;;5.40;62.10;;;;;;6275841;22;20409;-77
2021/01/19 01:16:44;;;;;;;2.80;2.60;;;5.40;62.20;;;;;;6275956;22;20525;-77
2021/01/19 01:19:12;;;;;;;3.67;3.37;;;5.40;62.30;;;;;;6276099;22;20421;-77
2021/01/19 01:21:39;;;;;;;5.43;3.50;;;5.40;62.40;;;;;;6276330;22;20915;-77
2021/01/19 01:24:07;;;;;;;4.17;3.70;;;5.40;62.50;;;;;;6277217;22;20438;-77
2021/01/19 01:26:34;;;;;;;4.57;3.30;;;5.40;62.50;;;;;;6277150;22;20444;-77
2021/01/19 01:29:00;;;;;;;3.90;2.57;;;5.40;62.30;;;;;;6277494;22;20410;-78
2021/01/19 01:31:27;;;;;;;3.23;2.80;;;5.40;62.40;;;;;;6277339;22;20909;-77
2021/01/19 01:33:53;;;;;;;3.83;2.87;;;5.30;62.30;;;;;;6277291;22;20949;-78
2021/01/19 01:36:21;;;;;;;4.70;2.93;;;5.30;62.30;;;;;;6277639;22;20396;-78
2021/01/19 01:38:47;;;;;;;5.10;3.37;;;5.30;62.30;;;;;;6275132;22;20888;-78
2021/01/19 01:41:16;;;;;;;7.73;3.50;;;5.30;62.40;;;;;;6277514;22;20409;-78
2021/01/19 01:43:43;;;;;;;3.80;3.40;;;5.30;62.50;;;;;;6276889;22;20754;-79
2021/01/19 01:46:11;;;;;;;4.20;3.90;;;5.30;62.50;;;;;;6277371;22;20411;-78
2021/01/19 01:48:39;;;;;;;4.13;3.30;;;5.20;62.50;;;;;;6277271;22;20411;-77
2021/01/19 01:51:07;;;;;;;4.80;3.10;;;5.20;62.60;;;;;;6277461;22;20516;-77
2021/01/19 01:53:35;;;;;;;3.13;2.83;;;5.20;62.50;;;;;;6276858;22;20409;-78
2021/01/19 01:56:01;;;;;;;4.20;3.30;;;5.20;62.50;;;;;;6277006;22;20829;-77
2021/01/19 01:58:28;;;;;;;4.30;3.20;;;5.20;62.50;;;;;;6277186;22;20410;-77
2021/01/19 02:00:55;;;;;;;2.83;2.63;;;5.20;62.40;;;;;;6277478;22;20472;-77
2021/01/19 02:03:22;;;;;;;2.77;2.53;;;5.20;62.40;;;;;;6276893;22;20414;-77
2021/01/19 02:05:48;;;;;;;7.00;3.20;;;5.20;62.40;;;;;;6275503;22;20449;-77
2021/01/19 02:08:23;;;;;;;3.40;2.53;;;5.20;62.30;;;;;;6277052;22;20419;-78
2021/01/19 02:10:59;;;;;;;5.80;2.40;;;5.20;62.40;;;;;;6277451;22;20408;-78
2021/01/19 02:13:35;;;;;;;3.07;2.60;;;5.30;62.50;;;;;;6277757;22;20739;-78
2021/01/19 02:16:15;;;;;;;4.87;3.33;;;5.30;62.50;;;;;;6277393;22;20433;-78
2021/01/19 02:18:52;;;;;;;3.30;2.67;;;5.30;62.50;;;;;;6276932;22;20911;-78
2021/01/19 02:21:54;;;;;;;3.40;3.10;;;5.30;62.30;;;;;;6277231;22;20435;-78
2021/01/19 02:24:31;;;;;;;2.97;2.27;;;5.40;62.30;;;;;;6276634;22;20945;-78
2021/01/19 02:27:29;;;;;;;3.90;3.60;;;5.30;62.20;;;;;;6277134;22;20472;-79
2021/01/19 02:30:19;;;;;;;2.50;2.30;;;5.30;62.30;;;;;;6277084;22;20410;-78
2021/01/19 02:33:03;;;;;;;3.67;2.63;;;5.30;62.20;;;;;;6274488;22;20938;-79
2021/01/19 02:35:38;;;;;;;3.63;3.20;;;5.30;62.20;;;;;;6276704;22;20920;-79
2021/01/19 02:38:16;;;;;;;5.43;3.20;;;5.30;62.40;;;;;;6276363;22;20407;-80
2021/01/19 02:40:45;;;;;;;2.60;2.10;;;5.30;62.40;;;;;;6276407;22;20409;-80
2021/01/19 02:43:14;;;;;;;3.27;2.80;;;5.30;62.40;;;;;;6276849;22;20791;-80
2021/01/19 02:45:45;;;;;;;2.93;2.60;;;5.30;62.40;;;;;;6276043;22;21025;-79
2021/01/19 02:48:13;;;;;;;2.63;2.37;;;5.30;62.40;;;;;;6276870;22;20406;-79
2021/01/19 02:50:39;;;;;;;3.50;2.80;;;5.30;62.30;;;;;;6276870;22;20409;-78
2021/01/19 02:53:06;;;;;;;2.20;2.10;;;5.30;62.30;;;;;;6276552;22;20447;-77
2021/01/19 02:55:33;;;;;;;3.63;2.20;;;5.30;62.30;;;;;;6276603;22;20418;-78
2021/01/19 02:58:07;;;;;;;2.63;2.43;;;5.30;62.40;;;;;;6274528;22;20892;-77
2021/01/19 03:00:44;;;;;;;4.30;2.77;;;5.40;62.50;;;;;;6276874;22;20403;-77
2021/01/19 03:03:12;;;;;;;2.40;2.20;;;5.40;62.50;;;;;;6276274;22;20417;-77
2021/01/19 03:05:39;;;;;;;4.00;2.50;;;5.50;62.30;;;;;;6276731;22;20456;-77
2021/01/19 03:08:08;;;;;;;8.03;2.43;;;5.50;62.10;;;;;;6277126;22;20419;-78
2021/01/19 03:10:38;;;;;;;3.43;2.27;;;5.60;62.20;;;;;;6276257;22;20407;-78
2021/01/19 03:13:05;;;;;;;3.10;1.90;;;5.60;62.20;;;;;;6276471;22;20407;-78
2021/01/19 03:15:31;;;;;;;2.70;2.50;;;5.60;62.20;;;;;;6276127;22;20421;-78
2021/01/19 03:17:58;;;;;;;2.80;2.30;;;5.60;62.20;;;;;;6276113;22;20415;-76
2021/01/19 03:20:27;;;;;;;2.93;2.60;;;5.70;61.90;;;;;;6276096;22;20928;-78
2021/01/19 03:22:53;;;;;;;6.20;2.63;;;5.80;61.50;;;;;;6276133;22;20415;-78
2021/01/19 03:25:20;;;;;;;1.90;1.80;;;5.80;61.40;;;;;;6274078;22;20935;-77
2021/01/19 03:27:47;;;;;;;1.90;1.80;;;5.80;61.50;;;;;;6276209;22;20410;-79
2021/01/19 03:30:14;;;;;;;2.00;1.90;;;5.80;61.60;;;;;;6276453;22;20428;-80
2021/01/19 03:32:41;;;;;;;2.80;2.60;;;5.80;61.50;;;;;;6276356;22;20430;-80
2021/01/19 03:35:08;;;;;;;2.57;2.33;;;5.80;61.30;;;;;;6276340;22;20755;-78
2021/01/19 03:37:36;;;;;;;3.17;2.90;;;5.80;60.80;;;;;;6276522;22;20404;-79
2021/01/19 03:40:04;;;;;;;3.17;2.60;;;5.90;60.60;;;;;;6276203;22;20417;-78
2021/01/19 03:42:30;;;;;;;3.53;2.20;;;5.90;60.20;;;;;;6276093;22;20408;-79
2021/01/19 03:44:57;;;;;;;7.70;2.63;;;5.90;59.70;;;;;;6275676;22;20460;-79
2021/01/19 03:47:23;;;;;;;2.53;2.33;;;5.90;59.40;;;;;;6275854;22;20417;-79
2021/01/19 03:49:50;;;;;;;4.70;2.20;;;5.90;59.30;;;;;;6276333;22;20753;-78
2021/01/19 03:52:16;;;;;;;3.03;2.70;;;5.90;59.30;;;;;;6273854;22;20782;-77
2021/01/19 03:54:44;;;;;;;2.87;2.30;;;5.90;59.20;;;;;;6275938;22;20471;-78
2021/01/19 03:57:10;;;;;;;3.20;2.10;;;5.90;58.90;;;;;;6276502;22;20733;-77
2021/01/19 03:59:37;;;;;;;3.37;2.07;;;5.90;58.90;;;;;;6276079;22;20442;-77
2021/01/19 04:02:03;;;;;;;3.90;2.43;;;5.90;59.20;;;;;;6276573;22;20813;-78
2021/01/19 04:04:30;;;;;;;2.40;2.20;;;5.90;59.10;;;;;;6275976;22;20447;-79
2021/01/19 04:06:56;;;;;;;2.30;2.17;;;5.90;58.90;;;;;;6276020;22;20742;-79
2021/01/19 04:09:23;;;;;;;3.70;2.00;;;5.90;58.90;;;;;;6276048;22;20809;-79
2021/01/19 04:11:50;;;;;;;3.27;2.97;;;5.90;58.90;;;;;;6275938;22;20411;-79
2021/01/19 04:14:17;;;;;;;4.83;2.73;;;6.00;58.90;;;;;;6275732;22;20908;-78
2021/01/19 04:16:44;;;;;;;2.60;2.20;;;6.00;58.70;;;;;;6275634;22;20777;-78
2021/01/19 04:19:10;;;;;;;2.10;2.00;;;6.00;58.70;;;;;;6273870;22;20410;-78
2021/01/19 04:21:38;;;;;;;2.60;2.40;;;5.90;58.40;;;;;;6275777;22;20465;-79
2021/01/19 04:24:06;;;;;;;2.77;2.57;;;5.90;58.50;;;;;;6275928;22;20422;-78
2021/01/19 04:26:33;;;;;;;2.53;2.33;;;5.90;58.70;;;;;;6275460;22;20412;-79
2021/01/19 04:29:00;;;;;;;2.40;2.20;;;5.90;59.00;;;;;;6276224;22;20405;-79
2021/01/19 04:31:27;;;;;;;3.47;2.13;;;5.80;58.70;;;;;;6275620;22;20425;-79
2021/01/19 04:33:53;;;;;;;2.27;2.07;;;5.80;58.80;;;;;;6276445;22;20430;-78
2021/01/19 04:36:20;;;;;;;3.33;2.40;;;5.70;58.90;;;;;;6275702;22;20406;-78
2021/01/19 04:38:46;;;;;;;7.87;2.60;;;5.70;58.90;;;;;;6276299;22;20902;-78
2021/01/19 04:41:14;;;;;;;5.80;2.10;;;5.70;58.90;;;;;;6276092;22;20743;-77
2021/01/19 04:43:42;;;;;;;4.03;2.30;;;5.70;58.90;;;;;;6275993;22;20408;-79
2021/01/19 04:46:10;;;;;;;2.53;2.30;;;5.70;59.00;;;;;;6273535;22;20457;-78
2021/01/19 04:48:37;;;;;;;4.50;2.90;;;5.60;58.80;;;;;;6275504;22;20414;-79
2021/01/19 04:51:05;;;;;;;2.83;2.60;;;5.60;58.90;;;;;;6276095;22;20410;-77
2021/01/19 04:53:36;;;;;;;2.60;2.37;;;5.60;58.80;;;;;;6275569;22;20423;-77
2021/01/19 04:56:04;;;;;;;6.07;3.17;;;5.60;58.60;;;;;;6276932;22;20407;-78
2021/01/19 04:58:31;;;;;;;3.10;2.60;;;5.60;58.60;;;;;;6277758;22;20907;-78
2021/01/19 05:01:06;;;;;;;2.90;1.53;;;5.60;58.80;;;;;;6277549;22;20453;-77
2021/01/19 05:03:42;;;;;;;2.27;2.13;;;5.70;59.10;;;;;;6277565;22;20919;-78
2021/01/19 05:06:21;;;;;;;5.17;2.57;;;5.70;59.10;;;;;;6278049;22;20457;-77
2021/01/19 05:08:57;;;;;;;3.70;2.37;;;5.70;58.80;;;;;;6277997;22;20410;-81
2021/01/19 05:11:29;;;;;;;2.40;2.10;;;5.70;58.80;;;;;;6275975;22;20411;-81
2021/01/19 05:14:00;;;;;;;5.20;2.00;;;5.70;58.70;;;;;;6277585;22;20419;-81
2021/01/19 05:16:30;;;;;;;3.30;2.33;;;5.70;58.50;;;;;;6277896;22;20402;-81
2021/01/19 05:18:59;;;;;;;2.93;2.40;;;5.70;58.90;;;;;;6277630;22;20415;-79
2021/01/19 05:21:25;;;;;;;4.30;2.50;;;5.60;59.00;;;;;;6277279;22;20411;-78
2021/01/19 05:23:54;;;;;;;3.10;2.80;;;5.60;59.10;;;;;;6277055;22;20464;-79
2021/01/19 05:26:20;;;;;;;3.20;2.27;;;5.60;59.00;;;;;;6277306;22;20940;-79
2021/01/19 05:28:49;;;;;;;2.87;2.67;;;5.70;59.00;;;;;;6277692;22;20402;-80
2021/01/19 05:31:25;;;;;;;3.90;2.67;;;5.60;58.80;;;;;;6277796;22;20417;-80
2021/01/19 05:34:09;;;;;;;4.57;2.50;;;5.60;58.70;;;;;;6276976;22;20429;-78
2021/01/19 05:36:42;;;;;;;3.40;2.27;;;5.70;58.80;;;;;;6277408;22;20407;-78
2021/01/19 05:39:11;;;;;;;2.80;2.60;;;5.60;58.70;;;;;;6274938;22;20893;-78
2021/01/19 05:41:40;;;;;;;3.30;2.60;;;5.60;58.50;;;;;;6277442;22;20410;-79
2021/01/19 05:44:19;;;;;;;2.97;2.77;;;5.60;58.50;;;;;;6277451;22;20407;-79
2021/01/19 05:46:49;;;;;;;3.67;2.67;;;5.60;58.40;;;;;;6277593;22;20524;-78
2021/01/19 05:49:21;;;;;;;2.93;2.27;;;5.60;58.60;;;;;;6277369;22;20409;-77
2021/01/19 05:51:55;;;;;;;3.43;3.00;;;5.60;58.90;;;;;;6277495;22;20444;-81
2021/01/19 05:54:24;;;;;;;2.70;2.50;;;5.60;58.90;;;;;;6276859;22;20411;-80
2021/01/19 05:56:50;;;;;;;3.50;3.17;;;5.50;58.70;;;;;;6276928;22;20421;-81
2021/01/19 05:59:33;;;;;;;3.50;2.43;;;5.50;58.70;;;;;;6276694;22;20427;-84
2021/01/19 06:02:10;;;;;;;2.33;2.13;;;5.50;58.90;;;;;;6277007;22;20507;-83
2021/01/19 06:04:50;;;;;;;2.13;2.00;;;5.40;58.70;;;;;;6274796;22;20438;-83
2021/01/19 06:07:19;;;;;;;3.33;2.60;;;5.40;59.30;;;;;;6276171;22;20900;-82
2021/01/19 06:09:46;;;;;;;5.93;3.47;;;5.40;58.90;;;;;;6276648;22;20428;-84
2021/01/19 06:12:14;;;;;;;5.50;2.90;;;5.40;58.80;;;;;;6276965;22;20492;-83
2021/01/19 06:14:48;;;;;;;4.50;2.90;;;5.40;58.60;;;;;;6276570;22;20425;-83
2021/01/19 06:17:23;;;;;;;2.50;2.30;;;5.40;58.60;;;;;;6276039;22;20433;-84
2021/01/19 06:20:09;;;;;;;4.00;3.00;;;5.40;58.60;;;;;;6276019;22;20447;-85
2021/01/19 06:22:39;;;;;;;6.23;3.23;;;5.30;58.40;;;;;;6274695;22;20487;-84
2021/01/19 06:25:13;;;;;;;2.53;2.30;;;5.30;58.70;;;;;;6276389;22;20429;-86
2021/01/19 06:30:45;;;;;;;4.07;3.07;;;5.30;58.70;;;;;;6259402;22;20465;-83
2021/01/19 06:33:21;;;;;;;4.20;2.63;;;5.30;58.50;;;;;;6274702;22;20955;-83
2021/01/19 06:35:55;;;;;;;4.50;2.93;;;5.20;58.40;;;;;;6276246;22;20428;-83
2021/01/19 06:38:32;;;;;;;3.67;2.30;;;5.20;58.70;;;;;;6276596;22;20420;-84
2021/01/19 06:41:34;;;;;;;3.27;2.47;;;5.30;58.70;;;;;;6276055;22;20725;-85
2021/01/19 06:44:07;;;;;;;2.43;2.23;;;5.30;58.60;;;;;;6222381;22;20447;-83
2021/01/19 06:46:48;;;;;;;4.57;2.70;;;5.20;58.70;;;;;;6276510;22;20770;-84
2021/01/19 06:49:16;;;;;;;4.50;3.17;;;5.10;58.50;;;;;;6275157;22;20425;-83
2021/01/19 06:52:18;;;;;;;4.50;3.10;;;5.10;58.70;;;;;;6276037;22;20516;-84
2021/01/19 06:55:10;;;;;;;14.70;3.43;;;5.20;58.80;;;;;;6275491;22;20637;-84
2021/01/19 06:58:12;;;;;;;3.17;2.63;;;5.20;58.90;;;;;;6275182;22;20416;-83
2021/01/19 07:00:42;;;;;;;4.37;3.67;;;5.20;59.40;;;;;;6270968;22;20422;-84
2021/01/19 07:03:30;;;;;;;5.80;3.30;;;5.20;58.80;;;;;;6276017;22;20445;-83
2021/01/19 07:06:01;;;;;;;6.53;3.80;;;5.20;58.60;;;;;;6275691;22;20517;-82
2021/01/19 07:09:25;;;;;;;3.27;2.87;;;5.20;58.70;;;;;;6276185;22;20429;-81
2021/01/19 07:12:17;;;;;;;5.70;3.17;;;5.20;58.50;;;;;;6276095;22;20415;-83
2021/01/19 07:15:04;;;;;;;7.30;2.87;;;5.10;58.50;;;;;;6277934;22;20415;-80
2021/01/19 07:18:01;;;;;;;3.80;3.30;;;5.10;58.50;;;;;;6275773;22;20416;-80
2021/01/19 07:20:31;;;;;;;5.37;3.10;;;5.10;58.40;;;;;;6276212;22;20397;-81
2021/01/19 07:23:38;;;;;;;4.27;3.87;;;5.10;58.40;;;;;;6275195;22;20510;-88
2021/01/19 07:29:28;;;;;;;8.87;3.67;;;5.10;58.50;;;;;;6276406;22;20385;-78
2021/01/19 07:31:55;;;;;;;11.73;3.40;;;5.00;58.50;;;;;;6271007;22;20463;-80
2021/01/19 07:34:22;;;;;;;4.90;3.53;;;5.00;58.50;;;;;;6274038;22;20398;-83
2021/01/19 07:36:55;;;;;;;6.93;4.03;;;5.10;58.80;;;;;;6272629;22;20427;-81
2021/01/19 07:39:22;;;;;;;12.83;4.13;;;5.10;58.80;;;;;;6274253;22;20429;-82
2021/01/19 07:41:55;;;;;;;3.30;2.90;;;5.10;58.90;;;;;;6270770;22;20420;-86
2021/01/19 07:44:35;;;;;;;5.50;3.40;;;5.10;58.60;;;;;;6272219;22;20423;-83
2021/01/19 08:14:10;;;;;;;4.53;4.13;;;5.60;57.50;;;;;;6273882;22;20454;-84
2021/01/19 08:17:12;;;;;;;4.83;3.50;;;5.70;57.60;;;;;;6271508;22;20445;-85
2021/01/19 08:19:41;;;;;;;4.40;3.50;;;5.80;57.50;;;;;;6272202;22;20422;-84
2021/01/19 08:22:15;;;;;;;5.87;3.70;;;5.80;57.10;;;;;;6271433;22;20532;-85
2021/01/19 08:24:59;;;;;;;;;;;;;;;;;;;;;
2021/01/19 08:52:51;;;;;;;5.37;3.20;;;6.30;55.00;;;;;;6150709;23;20461;-86
2021/01/19 08:55:22;;;;;;;5.70;3.60;;;6.20;55.20;;;;;;6149512;23;20460;-82
2021/01/19 08:58:00;;;;;;;6.53;3.60;;;6.20;55.10;;;;;;6148481;23;20431;-82
2021/01/19 09:00:28;;;;;;;4.57;4.23;;;6.20;55.30;;;;;;6241158;23;20422;-82
2021/01/19 09:02:58;;;;;;;8.87;4.00;;;6.30;55.40;;;;;;6241364;23;20432;-83
2021/01/19 09:05:29;;;;;;;5.70;5.10;;;6.30;55.30;;;;;;6239732;23;20462;-86
2021/01/19 09:08:14;;;;;;;4.30;3.70;;;6.40;55.60;;;;;;6240149;23;20428;-84
2021/01/19 09:37:11;;;;;;;33.73;4.40;;;6.80;54.50;;;;;;6062161;23;20411;-83
2021/01/19 09:43:27;;;;;;;6.40;3.60;;;6.90;54.50;;;;;;6183262;23;20357;-85
2021/01/19 09:46:39;;;;;;;3.73;3.40;;;6.90;54.70;;;;;;6178985;23;20524;-84
2021/01/19 09:56:59;;;;;;;;;;;;;;;;;;;;;
2021/01/19 10:06:29;;;;;;;10.77;4.37;;;7.00;55.10;;;;;;5978563;24;20858;-83
2021/01/19 10:13:13;;;;;;;6.43;4.13;;;7.10;55.00;;;;;;5920181;24;20904;-91
2021/01/19 10:16:15;;;;;;;3.67;3.37;;;7.10;55.10;;;;;;5927702;24;20458;-88
2021/01/19 10:19:21;;;;;;;4.00;3.60;;;7.10;55.20;;;;;;5976620;24;20761;-91
2021/01/19 10:28:42;;;;;;;5.33;3.43;;;6.90;55.30;;;;;;5979231;24;20768;-85
2021/01/19 10:34:46;;;;;;;13.83;3.47;;;6.80;55.70;;;;;;6037545;23;20468;-85
2021/01/19 10:37:40;;;;;;;7.93;5.77;;;6.70;56.00;;;;;;6060734;23;20930;-85
2021/01/19 10:40:13;;;;;;;5.83;3.70;;;6.80;56.10;;;;;;6177704;23;20920;-83
2021/01/19 10:42:44;;;;;;;11.83;4.03;;;6.80;56.20;;;;;;6195660;23;20419;-83
2021/01/19 10:45:53;;;;;;;4.63;2.87;;;6.80;56.10;;;;;;6241704;23;20788;-86
2021/01/19 10:48:35;;;;;;;7.60;3.70;;;6.80;56.40;;;;;;6119796;23;20439;-86
2021/01/19 10:51:18;;;;;;;6.50;3.07;;;6.90;56.40;;;;;;6120775;23;20814;-85
2021/01/19 10:53:48;;;;;;;5.00;3.93;;;6.90;56.20;;;;;;6208787;23;20567;-85
2021/01/19 10:56:15;;;;;;;7.10;3.97;;;6.90;56.10;;;;;;6240565;23;20430;-84
2021/01/19 10:58:44;;;;;;;8.93;3.30;;;6.90;56.40;;;;;;6241508;23;20830;-84
2021/01/19 11:01:19;;;;;;;4.63;3.30;;;7.00;56.50;;;;;;6243558;23;20424;-86
2021/01/19 11:03:48;;;;;;;3.80;3.20;;;7.10;56.40;;;;;;6243315;23;20418;-86
2021/01/19 11:06:32;;;;;;;7.37;3.70;;;7.10;56.10;;;;;;6244492;23;20455;-84
2021/01/19 11:09:06;;;;;;;7.03;4.20;;;7.10;55.70;;;;;;6244912;23;20417;-85
2021/01/19 11:11:35;;;;;;;6.70;2.90;;;7.10;55.90;;;;;;6243190;23;20421;-84
2021/01/19 11:14:07;;;;;;;5.53;3.90;;;7.20;55.90;;;;;;6242404;23;20476;-85
2021/01/19 11:16:35;;;;;;;3.77;3.27;;;7.20;55.90;;;;;;6244714;22;20422;-82
2021/01/19 11:19:03;;;;;;;4.30;3.60;;;7.20;55.90;;;;;;6245522;23;20418;-83
2021/01/19 11:21:32;;;;;;;4.43;3.63;;;7.30;55.70;;;;;;6243680;23;20421;-83
2021/01/19 11:23:59;;;;;;;10.23;4.00;;;7.30;55.50;;;;;;6245709;23;20421;-84
2021/01/19 11:26:31;;;;;;;3.60;3.30;;;7.30;55.30;;;;;;6241554;23;20501;-84
2021/01/19 11:32:24;;;;;;;;;;;;;;;;;;;;;
2021/01/19 11:35:42;;;;;;;4.90;3.80;;;7.30;55.50;;;;;;6242447;22;20437;-87
2021/01/19 11:38:33;;;;;;;16.43;3.90;;;7.20;55.60;;;;;;6243991;23;20423;-87
2021/01/19 11:41:21;;;;;;;3.67;3.33;;;7.20;55.40;;;;;;6241003;23;20912;-87
2021/01/19 11:43:49;;;;;;;5.70;3.90;;;7.30;55.50;;;;;;6243980;23;20937;-84
2021/01/19 11:46:47;;;;;;;5.70;4.10;;;7.30;55.50;;;;;;6244426;23;20451;-84
2021/01/19 11:49:56;;;;;;;3.20;2.80;;;7.40;55.50;;;;;;6132143;23;20428;-88
2021/01/19 11:52:57;;;;;;;6.53;4.07;;;7.40;55.00;;;;;;6239380;23;20426;-85
2021/01/19 11:55:34;;;;;;;3.93;3.17;;;7.50;55.10;;;;;;6240820;23;20426;-85
2021/01/19 11:58:02;;;;;;;5.60;3.70;;;7.60;55.00;;;;;;6244562;23;20418;-85
2021/01/19 12:24:43;;;;;;;4.10;2.30;;;8.00;54.60;;;;;;6049108;23;20407;-83
2021/01/19 12:27:23;;;;;;;5.77;2.90;;;8.00;54.20;;;;;;6088044;23;20928;-83
2021/01/19 12:29:50;;;;;;;5.80;2.87;;;8.00;54.10;;;;;;6090366;23;20498;-83
2021/01/19 12:36:31;;;;;;;8.63;4.70;;;8.00;54.20;;;;;;6136754;23;20496;-85
2021/01/19 12:39:08;;;;;;;7.53;4.23;;;8.10;54.10;;;;;;6241121;23;20422;-85
2021/01/19 12:42:23;;;;;;;5.27;3.40;;;8.10;54.20;;;;;;6240545;23;20502;-90
2021/01/19 12:45:01;;;;;;;4.17;3.87;;;8.10;54.00;;;;;;6210388;23;20435;-85
2021/01/19 12:47:28;;;;;;;10.37;3.50;;;8.10;54.20;;;;;;6217673;23;20490;-84
2021/01/19 12:49:54;;;;;;;19.33;4.37;;;8.10;54.40;;;;;;6241192;23;20430;-83
2021/01/19 12:52:21;;;;;;;5.17;3.20;;;8.10;54.70;;;;;;6242597;23;20434;-82
2021/01/19 12:54:47;;;;;;;6.40;2.40;;;8.20;54.70;;;;;;6244384;23;20431;-85
2021/01/19 12:57:15;;;;;;;3.40;3.10;;;8.20;54.80;;;;;;6244468;23;20421;-81
2021/01/19 12:59:42;;;;;;;2.97;2.77;;;8.20;54.70;;;;;;6243560;23;20426;-81
2021/01/19 13:02:10;;;;;;;9.70;3.10;;;8.20;55.00;;;;;;6243898;23;20419;-81
2021/01/19 13:04:40;;;;;;;7.03;3.60;;;8.20;55.10;;;;;;6243890;23;20747;-82
2021/01/19 13:07:37;;;;;;;3.90;3.60;;;8.20;55.70;;;;;;6243216;23;20537;-87
2021/01/19 13:10:49;;;;;;;4.70;3.63;;;8.20;56.10;;;;;;6244099;23;20890;-86
2021/01/19 13:13:18;;;;;;;12.20;3.63;;;8.20;56.40;;;;;;6242553;23;20422;-82
2021/01/19 13:15:47;;;;;;;3.43;2.60;;;8.20;56.70;;;;;;6242519;23;20449;-82
2021/01/19 13:18:15;;;;;;;8.97;3.43;;;8.30;56.70;;;;;;6243830;23;20425;-82
2021/01/19 13:20:42;;;;;;;4.00;2.60;;;8.40;56.60;;;;;;6246079;23;20833;-81
2021/01/19 13:23:11;;;;;;;3.83;3.20;;;8.40;56.60;;;;;;6246178;23;20425;-82
2021/01/19 13:25:44;;;;;;;2.30;2.10;;;8.60;56.60;;;;;;6245544;23;20448;-82
2021/01/19 13:28:11;;;;;;;28.03;3.97;;;8.60;56.20;;;;;;6246154;23;20451;-81
2021/01/19 13:30:38;;;;;;;4.30;2.80;;;8.50;56.10;;;;;;6245321;23;20423;-81
2021/01/19 13:33:06;;;;;;;2.97;1.80;;;8.50;56.30;;;;;;6246345;23;21147;-81
2021/01/19 13:35:34;;;;;;;2.70;1.90;;;8.50;56.50;;;;;;6229935;23;20502;-81
2021/01/19 13:38:06;;;;;;;3.90;1.53;;;8.40;56.80;;;;;;6215211;23;20419;-82
2021/01/19 13:40:46;;;;;;;5.73;2.30;;;8.40;57.00;;;;;;6214511;23;20437;-84
2021/01/19 13:43:13;;;;;;;3.53;1.70;;;8.50;57.10;;;;;;6213976;23;20434;-81
2021/01/19 13:45:44;;;;;;;1.97;1.87;;;8.60;57.10;;;;;;6213156;23;20439;-83
2021/01/19 13:48:11;;;;;;;2.70;1.60;;;8.50;56.90;;;;;;6215392;23;20438;-82
2021/01/19 13:51:01;;;;;;;5.00;4.47;;;8.50;57.00;;;;;;6215121;23;20449;-83
2021/01/19 13:53:28;;;;;;;1.80;1.17;;;8.50;57.20;;;;;;6215459;23;20477;-81
2021/01/19 13:55:56;;;;;;;2.53;1.50;;;8.50;57.10;;;;;;6215097;23;20420;-83
2021/01/19 13:58:58;;;;;;;19.83;2.50;;;8.60;57.20;;;;;;6214578;23;20445;-83
2021/01/19 14:01:43;;;;;;;10.50;1.40;;;8.60;57.30;;;;;;6213736;23;20416;-83
2021/01/19 14:04:10;;;;;;;2.57;1.27;;;8.50;56.80;;;;;;6214380;23;20972;-82
2021/01/19 14:06:56;;;;;;;5.57;1.40;;;8.40;56.90;;;;;;6214545;23;20450;-84
2021/01/19 14:09:48;;;;;;;1.67;1.30;;;8.40;57.00;;;;;;6215218;23;20400;-82
2021/01/19 14:12:53;;;;;;;1.43;1.17;;;8.40;56.70;;;;;;6061877;23;20455;-84
2021/01/19 14:15:20;;;;;;;1.67;1.00;;;8.40;56.60;;;;;;5978991;24;20418;-84
2021/01/19 14:17:56;;;;;;;1.40;1.30;;;8.30;56.30;;;;;;5979219;24;20527;-82
2021/01/19 17:17:29;;;;;;;1.80;1.30;;;8.20;58.40;;;;;;5979488;24;20416;-85
2021/01/19 17:21:07;;;;;;;5.77;2.00;;;8.20;58.50;;;;;;5975657;24;20422;-87
2021/01/19 17:23:46;;;;;;;2.33;1.60;;;8.30;58.50;;;;;;5947535;24;20431;-84
2021/01/19 17:26:14;;;;;;;3.70;2.20;;;8.30;58.70;;;;;;5989541;23;20965;-83
2021/01/19 17:28:41;;;;;;;1.93;1.20;;;8.30;58.60;;;;;;6154341;23;20430;-83
2021/01/19 17:31:08;;;;;;;2.03;1.83;;;8.30;58.80;;;;;;6246311;23;20937;-83
2021/01/19 17:36:41;;;;;;;3.30;2.27;;;8.40;58.80;;;;;;6170507;23;20398;-82
2021/01/19 17:39:15;;;;;;;1.57;1.47;;;8.40;59.20;;;;;;6246644;23;20474;-86
2021/01/19 17:41:44;;;;;;;2.50;1.70;;;8.40;59.50;;;;;;6245580;23;20425;-86
2021/01/19 17:44:11;;;;;;;3.13;2.37;;;8.50;59.90;;;;;;6243657;23;20929;-82
2021/01/19 17:47:15;;;;;;;;;;;;;;;;;;;;;
2021/01/19 17:50:26;;;;;;;3.43;2.43;;;8.50;60.80;;;;;;6245688;23;20418;-83
2021/01/19 17:52:53;;;;;;;4.23;2.30;;;8.50;61.50;;;;;;6234908;23;20433;-82
2021/01/19 17:56:09;;;;;;;3.07;2.87;;;8.50;62.00;;;;;;6245673;23;20421;-84
2021/01/19 17:58:58;;;;;;;2.50;2.30;;;8.50;62.50;;;;;;6245313;23;20415;-85
2021/01/19 18:01:25;;;;;;;2.03;1.67;;;8.50;63.20;;;;;;6245481;23;20448;-84
2021/01/19 18:03:53;;;;;;;7.70;2.40;;;8.50;63.60;;;;;;6245864;23;20504;-82
2021/01/19 18:06:51;;;;;;;2.30;2.00;;;8.50;63.70;;;;;;6246079;23;20855;-86
2021/01/19 18:09:22;;;;;;;5.13;2.30;;;8.60;63.90;;;;;;6227892;23;20435;-84
2021/01/19 18:15:19;;;;;;;1.63;1.53;;;8.60;64.20;;;;;;6162139;23;20420;-83
2021/01/19 18:18:33;;;;;;;2.17;1.97;;;8.60;64.30;;;;;;6215479;23;20424;-85
2021/01/19 18:21:49;;;;;;;2.47;1.50;;;8.60;64.10;;;;;;6051453;23;20424;-85
2021/01/19 18:24:35;;;;;;;2.73;2.03;;;8.60;62.50;;;;;;6205270;23;20796;-85
2021/01/19 18:34:58;;;;;;;1.97;1.77;;;8.40;61.60;;;;;;5953207;24;20570;-88
2021/01/19 18:54:22;;;;;;;2.57;2.23;;;8.20;59.80;;;;;;6184094;23;20449;-86
2021/01/19 18:57:28;;;;;;;1.67;1.57;;;8.20;60.10;;;;;;6185456;23;20420;-87
2021/01/19 19:00:00;;;;;;;2.30;2.07;;;8.20;59.90;;;;;;6065100;23;20412;-85
2021/01/19 19:13:16;;;;;;;2.97;2.13;;;8.20;59.30;;;;;;6185924;23;20819;-87
2021/01/19 19:29:37;;;;;;;3.00;2.70;;;8.10;59.00;;;;;;6185944;23;20348;-87
2021/01/19 19:36:01;;;;;;;1.73;1.63;;;8.10;59.10;;;;;;6185793;23;20655;-87
2021/01/19 19:38:38;;;;;;;4.53;1.80;;;8.10;59.00;;;;;;6185391;23;20400;-89
2021/01/19 19:41:07;;;;;;;3.27;2.30;;;8.10;58.60;;;;;;6184982;23;20499;-84
2021/01/19 19:43:36;;;;;;;1.63;1.53;;;8.00;58.30;;;;;;6184925;23;20502;-85
2021/01/19 19:46:14;;;;;;;2.40;2.20;;;8.00;58.30;;;;;;6184591;23;20446;-83
2021/01/19 19:48:49;;;;;;;4.03;2.40;;;8.00;58.40;;;;;;6184811;23;20507;-85
2021/01/19 19:51:54;;;;;;;2.43;2.23;;;8.00;58.20;;;;;;6183819;23;20420;-86
2021/01/19 19:54:25;;;;;;;2.67;2.47;;;8.00;58.20;;;;;;6184437;23;20418;-85
2021/01/19 19:57:37;;;;;;;2.30;2.10;;;8.00;58.10;;;;;;6184604;23;20465;-87
2021/01/19 20:24:23;;;;;;;3.83;3.43;;;7.90;58.40;;;;;;5969077;23;20546;-85
2021/01/19 21:11:21;;;;;;;3.43;3.00;;;7.50;56.40;;;;;;6183151;22;20438;-83
2021/01/19 21:14:45;;;;;;;2.67;2.47;;;7.50;55.90;;;;;;6183779;23;20463;-85